createdAt,value
2022-08-08T00:00:40.000Z,76
2022-08-08T00:01:56.000Z,76.2
2022-08-08T00:03:12.000Z,76.3
2022-08-08T00:04:28.000Z,76.5
2022-08-08T00:05:45.000Z,76.5
2022-08-08T00:07:01.000Z,76.7
2022-08-08T00:08:17.000Z,76.7
2022-08-08T00:09:33.000Z,76.8
2022-08-08T00:10:49.000Z,76.7
2022-08-08T00:12:05.000Z,76.7
2022-08-08T00:13:21.000Z,76.8
2022-08-08T00:14:37.000Z,76.8
2022-08-08T00:15:54.000Z,76.9
2022-08-08T00:17:10.000Z,77
2022-08-08T00:18:26.000Z,77
2022-08-08T00:19:42.000Z,77.3
2022-08-08T00:20:59.000Z,77.4
2022-08-08T00:22:15.000Z,77.6
2022-08-08T00:23:31.000Z,77.8
2022-08-08T00:24:47.000Z,78
2022-08-08T00:26:03.000Z,78
2022-08-08T00:27:19.000Z,78.1
2022-08-08T00:28:35.000Z,78.2
2022-08-08T00:29:51.000Z,78.4
2022-08-08T00:31:07.000Z,78.4
2022-08-08T00:32:24.000Z,78.5
2022-08-08T00:33:40.000Z,78.7
2022-08-08T00:34:56.000Z,78.8
2022-08-08T00:36:12.000Z,79.1
2022-08-08T00:37:29.000Z,79.2
2022-08-08T00:38:45.000Z,79.3
2022-08-08T00:40:01.000Z,79.5
2022-08-08T00:41:17.000Z,79.8
2022-08-08T00:42:34.000Z,79.7
2022-08-08T00:43:49.000Z,79.8
2022-08-08T00:45:05.000Z,80
2022-08-08T00:46:21.000Z,80
2022-08-08T00:47:37.000Z,80
2022-08-08T00:48:54.000Z,80
2022-08-08T00:50:10.000Z,80.3
2022-08-08T00:51:26.000Z,80.6
2022-08-08T00:52:42.000Z,80.7
2022-08-08T00:53:59.000Z,80.9
2022-08-08T00:55:15.000Z,80.9
2022-08-08T00:56:31.000Z,81.2
2022-08-08T00:57:47.000Z,81.3
2022-08-08T00:59:04.000Z,81.3
2022-08-08T01:00:19.000Z,81.4
2022-08-08T01:01:35.000Z,81.6
2022-08-08T01:02:51.000Z,81.6
2022-08-08T01:04:08.000Z,81.7
2022-08-08T01:05:24.000Z,81.8
2022-08-08T01:06:40.000Z,81.8
2022-08-08T01:07:56.000Z,81.8
2022-08-08T01:09:12.000Z,81.9
2022-08-08T01:10:29.000Z,82.1
2022-08-08T01:11:45.000Z,82.2
2022-08-08T01:13:01.000Z,82.5
2022-08-08T01:14:17.000Z,82.4
2022-08-08T01:15:34.000Z,82.4
2022-08-08T01:16:49.000Z,82.7
2022-08-08T01:18:05.000Z,82.9
2022-08-08T01:19:21.000Z,83.1
2022-08-08T01:20:38.000Z,83.2
2022-08-08T01:21:54.000Z,83.5
2022-08-08T01:23:10.000Z,83.5
2022-08-08T01:24:26.000Z,83.8
2022-08-08T01:25:42.000Z,83.9
2022-08-08T01:26:59.000Z,84
2022-08-08T01:28:15.000Z,84.1
2022-08-08T01:29:31.000Z,84.2
2022-08-08T01:30:47.000Z,84.3
2022-08-08T01:32:04.000Z,84.4
2022-08-08T01:33:19.000Z,84.6
2022-08-08T01:34:35.000Z,84.7
2022-08-08T01:35:51.000Z,84.9
2022-08-08T01:37:08.000Z,85.2
2022-08-08T01:38:24.000Z,85.2
2022-08-08T01:39:40.000Z,84.9
2022-08-08T01:40:56.000Z,85
2022-08-08T01:42:13.000Z,85.3
2022-08-08T01:43:29.000Z,85.3
2022-08-08T01:44:45.000Z,85.5
2022-08-08T01:46:01.000Z,85.7
2022-08-08T01:47:17.000Z,85.7
2022-08-08T01:48:34.000Z,85.7
2022-08-08T01:49:49.000Z,85.8
2022-08-08T01:51:05.000Z,85.9
2022-08-08T01:52:21.000Z,85.8
2022-08-08T01:53:38.000Z,85.7
2022-08-08T01:54:54.000Z,85.9
2022-08-08T01:56:10.000Z,85.9
2022-08-08T01:57:26.000Z,86.1
2022-08-08T01:58:43.000Z,86.2
2022-08-08T01:59:59.000Z,86.3
2022-08-08T02:01:15.000Z,86.4
2022-08-08T02:02:31.000Z,86.3
2022-08-08T02:03:48.000Z,86.5
2022-08-08T02:05:04.000Z,86.4
2022-08-08T02:06:19.000Z,86.6
2022-08-08T02:07:35.000Z,86.7
2022-08-08T02:08:51.000Z,86.8
2022-08-08T02:10:08.000Z,86.8
2022-08-08T02:11:24.000Z,87
2022-08-08T02:12:40.000Z,87.1
2022-08-08T02:13:56.000Z,87.4
2022-08-08T02:15:13.000Z,87.4
2022-08-08T02:16:29.000Z,87.4
2022-08-08T02:17:45.000Z,87.4
2022-08-08T02:19:01.000Z,87.4
2022-08-08T02:20:18.000Z,87.6
2022-08-08T02:21:34.000Z,87.6
2022-08-08T02:22:49.000Z,87.8
2022-08-08T02:24:05.000Z,87.8
2022-08-08T02:25:22.000Z,87.9
2022-08-08T02:26:38.000Z,87.9
2022-08-08T02:27:54.000Z,87.9
2022-08-08T02:29:10.000Z,88
2022-08-08T02:30:26.000Z,88.1
2022-08-08T02:31:43.000Z,88.1
2022-08-08T02:32:58.000Z,88.2
2022-08-08T02:34:13.000Z,88.3
2022-08-08T02:35:29.000Z,88.4
2022-08-08T02:36:46.000Z,88.4
2022-08-08T02:38:02.000Z,88.6
2022-08-08T02:39:18.000Z,88.6
2022-08-08T02:40:34.000Z,88.6
2022-08-08T02:41:50.000Z,88.8
2022-08-08T02:43:05.000Z,88.9
2022-08-08T02:44:21.000Z,89
2022-08-08T02:45:37.000Z,89.1
2022-08-08T02:46:54.000Z,89.2
2022-08-08T02:48:10.000Z,89.3
2022-08-08T02:49:26.000Z,89.5
2022-08-08T02:50:41.000Z,89.5
2022-08-08T02:51:58.000Z,89.6
2022-08-08T02:53:14.000Z,89.7
2022-08-08T02:54:30.000Z,89.7
2022-08-08T02:55:46.000Z,89.8
2022-08-08T02:57:03.000Z,89.8
2022-08-08T02:58:19.000Z,89.8
2022-08-08T02:59:35.000Z,89.9
2022-08-08T03:00:51.000Z,90.1
2022-08-08T03:02:07.000Z,90.2
2022-08-08T03:03:24.000Z,90.4
2022-08-08T03:04:40.000Z,90.4
2022-08-08T03:05:56.000Z,90.3
2022-08-08T03:07:11.000Z,90.3
2022-08-08T03:08:28.000Z,90.4
2022-08-08T03:09:44.000Z,90.4
2022-08-08T03:11:00.000Z,90.5
2022-08-08T03:12:16.000Z,90.7
2022-08-08T03:13:33.000Z,90.9
2022-08-08T03:14:49.000Z,90.9
2022-08-08T03:16:05.000Z,90.9
2022-08-08T03:17:21.000Z,91
2022-08-08T03:18:37.000Z,91.1
2022-08-08T03:19:54.000Z,91.2
2022-08-08T03:21:10.000Z,91.1
2022-08-08T03:22:26.000Z,91.2
2022-08-08T03:23:41.000Z,91.2
2022-08-08T03:24:58.000Z,91.5
2022-08-08T03:26:14.000Z,91.5
2022-08-08T03:27:30.000Z,91.6
2022-08-08T03:28:46.000Z,91.7
2022-08-08T03:30:03.000Z,91.8
2022-08-08T03:31:19.000Z,91.8
2022-08-08T03:32:35.000Z,91.7
2022-08-08T03:33:51.000Z,91.9
2022-08-08T03:35:08.000Z,91.8
2022-08-08T03:36:24.000Z,91.9
2022-08-08T03:37:40.000Z,92
2022-08-08T03:38:56.000Z,92.1
2022-08-08T03:40:11.000Z,92.1
2022-08-08T03:41:28.000Z,92
2022-08-08T03:42:44.000Z,92
2022-08-08T03:44:00.000Z,91.9
2022-08-08T03:45:16.000Z,91.9
2022-08-08T03:46:33.000Z,91.9
2022-08-08T03:47:49.000Z,92
2022-08-08T03:49:05.000Z,92
2022-08-08T03:50:21.000Z,92.1
2022-08-08T03:51:38.000Z,92.4
2022-08-08T03:52:54.000Z,92.4
2022-08-08T03:54:10.000Z,92
2022-08-08T03:55:26.000Z,92.1
2022-08-08T03:56:42.000Z,92.2
2022-08-08T03:57:58.000Z,92.5
2022-08-08T03:59:14.000Z,92.8
2022-08-08T04:00:30.000Z,93.7
2022-08-08T04:01:46.000Z,93.9
2022-08-08T04:03:03.000Z,93.8
2022-08-08T04:04:19.000Z,94.5
2022-08-08T04:05:35.000Z,94.9
2022-08-08T04:06:51.000Z,94.7
2022-08-08T04:08:08.000Z,94.6
2022-08-08T04:09:24.000Z,94.6
2022-08-08T04:10:40.000Z,94.3
2022-08-08T04:11:56.000Z,94
2022-08-08T04:13:12.000Z,93.6
2022-08-08T04:14:28.000Z,93.3
2022-08-08T04:15:44.000Z,92.9
2022-08-08T04:17:00.000Z,92.6
2022-08-08T04:18:17.000Z,92.5
2022-08-08T04:19:33.000Z,92.3
2022-08-08T04:20:49.000Z,92.2
2022-08-08T04:22:05.000Z,92.1
2022-08-08T04:23:21.000Z,92
2022-08-08T04:24:38.000Z,91.8
2022-08-08T04:25:53.000Z,91.6
2022-08-08T04:27:08.000Z,91.5
2022-08-08T04:28:23.000Z,91.3
2022-08-08T04:29:39.000Z,91.2
2022-08-08T04:30:55.000Z,91.3
2022-08-08T04:32:11.000Z,91.2
2022-08-08T04:33:27.000Z,91.3
2022-08-08T04:34:44.000Z,91.5
2022-08-08T04:36:00.000Z,91.4
2022-08-08T04:37:16.000Z,91.4
2022-08-08T04:38:32.000Z,91.3
2022-08-08T04:39:49.000Z,91.3
2022-08-08T04:41:05.000Z,91.2
2022-08-08T04:42:21.000Z,91.2
2022-08-08T04:43:37.000Z,91.1
2022-08-08T04:44:54.000Z,91.1
2022-08-08T04:46:09.000Z,91
2022-08-08T04:47:25.000Z,91.1
2022-08-08T04:48:41.000Z,91.1
2022-08-08T04:49:57.000Z,91
2022-08-08T04:51:14.000Z,90.9
2022-08-08T04:52:30.000Z,90.8
2022-08-08T04:53:46.000Z,90.9
2022-08-08T04:55:02.000Z,90.9
2022-08-08T04:56:19.000Z,90.7
2022-08-08T04:57:35.000Z,90.5
2022-08-08T04:58:51.000Z,90.3
2022-08-08T05:00:07.000Z,90
2022-08-08T05:01:24.000Z,89.8
2022-08-08T05:02:40.000Z,89.8
2022-08-08T05:03:56.000Z,89.8
2022-08-08T05:05:11.000Z,89.8
2022-08-08T05:06:28.000Z,89.7
2022-08-08T05:07:44.000Z,89.4
2022-08-08T05:09:00.000Z,89.4
2022-08-08T05:10:16.000Z,89.4
2022-08-08T05:11:32.000Z,89.4
2022-08-08T05:12:49.000Z,89.3
2022-08-08T05:14:05.000Z,89
2022-08-08T05:15:21.000Z,89
2022-08-08T05:16:37.000Z,89
2022-08-08T05:17:54.000Z,89
2022-08-08T05:19:10.000Z,88.7
2022-08-08T05:20:26.000Z,88.4
2022-08-08T05:21:41.000Z,88.4
2022-08-08T05:22:58.000Z,88.3
2022-08-08T05:24:14.000Z,88.1
2022-08-08T05:25:30.000Z,87.9
2022-08-08T05:26:46.000Z,87.8
2022-08-08T05:28:03.000Z,87.6
2022-08-08T05:29:19.000Z,87.3
2022-08-08T05:30:35.000Z,87.2
2022-08-08T05:31:51.000Z,86.9
2022-08-08T05:33:07.000Z,86.6
2022-08-08T05:34:24.000Z,86.6
2022-08-08T05:35:40.000Z,86.6
2022-08-08T05:38:12.000Z,86.7
2022-08-08T05:39:28.000Z,86.8
2022-08-08T05:40:44.000Z,86.9
2022-08-08T05:42:00.000Z,86.3
2022-08-08T05:43:16.000Z,86.4
2022-08-08T05:44:33.000Z,86.3
2022-08-08T05:45:49.000Z,86
2022-08-08T05:47:05.000Z,85.4
2022-08-08T05:48:21.000Z,85.3
2022-08-08T05:49:38.000Z,85.5
2022-08-08T05:50:54.000Z,84.9
2022-08-08T05:52:10.000Z,84.8
2022-08-08T05:53:26.000Z,84.5
2022-08-08T05:54:41.000Z,84
2022-08-08T05:55:57.000Z,83.5
2022-08-08T05:57:12.000Z,83.7
2022-08-08T05:58:27.000Z,83.4
2022-08-08T05:59:43.000Z,83.2
2022-08-08T06:01:00.000Z,83
2022-08-08T06:02:16.000Z,83
2022-08-08T06:03:32.000Z,82.6
2022-08-08T06:04:48.000Z,82.8
2022-08-08T06:06:05.000Z,82.1
2022-08-08T06:07:21.000Z,81.8
2022-08-08T06:08:37.000Z,81.6
2022-08-08T06:09:53.000Z,81.7
2022-08-08T06:11:10.000Z,81.7
2022-08-08T06:12:26.000Z,81.6
2022-08-08T06:13:42.000Z,81.7
2022-08-08T06:14:58.000Z,81.5
2022-08-08T06:16:14.000Z,80.6
2022-08-08T06:17:30.000Z,80.8
2022-08-08T06:18:46.000Z,80.8
2022-08-08T06:20:02.000Z,80.6
2022-08-08T06:21:18.000Z,80.1
2022-08-08T06:22:35.000Z,79.7
2022-08-08T06:23:50.000Z,79.1
2022-08-08T06:25:05.000Z,78.4
2022-08-08T06:26:21.000Z,77.9
2022-08-08T06:27:38.000Z,77.5
2022-08-08T06:28:54.000Z,77.9
2022-08-08T06:30:09.000Z,77.9
2022-08-08T06:31:24.000Z,76.5
2022-08-08T06:32:41.000Z,77.1
2022-08-08T06:33:57.000Z,76.9
2022-08-08T06:35:13.000Z,77.3
2022-08-08T06:36:29.000Z,77
2022-08-08T06:37:46.000Z,76.5
2022-08-08T06:39:02.000Z,77
2022-08-08T06:40:18.000Z,76.3
2022-08-08T06:41:34.000Z,76
2022-08-08T06:42:51.000Z,75.8
2022-08-08T06:44:07.000Z,75.3
2022-08-08T06:45:23.000Z,75.1
2022-08-08T06:46:39.000Z,74.8
2022-08-08T06:47:54.000Z,75
2022-08-08T06:49:11.000Z,74.7
2022-08-08T06:50:27.000Z,74.8
2022-08-08T06:51:43.000Z,74.6
2022-08-08T06:52:59.000Z,75
2022-08-08T06:54:16.000Z,74.3
2022-08-08T06:55:32.000Z,74.2
2022-08-08T06:56:48.000Z,74
2022-08-08T06:58:04.000Z,73.9
2022-08-08T06:59:21.000Z,73.3
2022-08-08T07:00:36.000Z,73.2
2022-08-08T07:01:51.000Z,72.7
2022-08-08T07:03:07.000Z,72
2022-08-08T07:04:24.000Z,72.2
2022-08-08T07:05:39.000Z,72.4
2022-08-08T07:06:54.000Z,72.8
2022-08-08T07:08:09.000Z,71.5
2022-08-08T07:09:26.000Z,71.4
2022-08-08T07:10:42.000Z,70.9
2022-08-08T07:11:58.000Z,70.9
2022-08-08T07:13:14.000Z,71
2022-08-08T07:14:31.000Z,70.3
2022-08-08T07:15:47.000Z,70.2
2022-08-08T07:17:03.000Z,70
2022-08-08T07:18:19.000Z,69.9
2022-08-08T07:19:35.000Z,69.9
2022-08-08T07:20:52.000Z,70.3
2022-08-08T07:22:08.000Z,68.7
2022-08-08T07:23:24.000Z,69
2022-08-08T07:24:39.000Z,69.2
2022-08-08T07:25:56.000Z,68.9
2022-08-08T07:27:12.000Z,68.3
2022-08-08T07:28:28.000Z,68.5
2022-08-08T07:29:44.000Z,68.1
2022-08-08T07:31:01.000Z,68
2022-08-08T07:32:17.000Z,68.1
2022-08-08T07:33:33.000Z,67.9
2022-08-08T07:34:49.000Z,67.8
2022-08-08T07:36:05.000Z,67.8
2022-08-08T07:37:22.000Z,66.8
2022-08-08T07:38:38.000Z,67.3
2022-08-08T07:39:54.000Z,67
2022-08-08T07:41:09.000Z,66.9
2022-08-08T07:42:26.000Z,66.9
2022-08-08T07:43:42.000Z,67.5
2022-08-08T07:44:58.000Z,67.2
2022-08-08T07:46:14.000Z,67.4
2022-08-08T07:47:31.000Z,66.8
2022-08-08T07:48:46.000Z,66.2
2022-08-08T07:50:01.000Z,66.2
2022-08-08T07:51:17.000Z,65.8
2022-08-08T07:52:33.000Z,65.7
2022-08-08T07:53:48.000Z,66
2022-08-08T07:55:04.000Z,65.7
2022-08-08T07:56:20.000Z,65.7
2022-08-08T07:57:37.000Z,65.5
2022-08-08T07:58:53.000Z,65.3
2022-08-08T08:00:09.000Z,64.9
2022-08-08T08:01:25.000Z,64.2
2022-08-08T08:02:42.000Z,63.1
2022-08-08T08:03:58.000Z,62.5
2022-08-08T08:05:14.000Z,62.8
2022-08-08T08:06:30.000Z,62.8
2022-08-08T08:07:46.000Z,62.1
2022-08-08T08:09:03.000Z,61.8
2022-08-08T08:10:18.000Z,61.6
2022-08-08T08:11:34.000Z,61
2022-08-08T08:12:50.000Z,60.6
2022-08-08T08:14:07.000Z,60.5
2022-08-08T08:15:23.000Z,59.9
2022-08-08T08:16:39.000Z,60.1
2022-08-08T08:17:55.000Z,60.3
2022-08-08T08:19:12.000Z,59.5
2022-08-08T08:20:27.000Z,59.6
2022-08-08T08:21:42.000Z,59.2
2022-08-08T08:22:57.000Z,58.3
2022-08-08T08:24:13.000Z,59.2
2022-08-08T08:25:29.000Z,58.9
2022-08-08T08:26:45.000Z,58.8
2022-08-08T08:28:01.000Z,58.8
2022-08-08T08:29:18.000Z,59
2022-08-08T08:30:34.000Z,58.9
2022-08-08T08:31:50.000Z,58.4
2022-08-08T08:33:06.000Z,58.3
2022-08-08T08:34:22.000Z,58.5
2022-08-08T08:35:39.000Z,58.4
2022-08-08T08:36:55.000Z,58.4
2022-08-08T08:38:11.000Z,58.3
2022-08-08T08:39:27.000Z,57.9
2022-08-08T08:40:43.000Z,58.8
2022-08-08T08:41:59.000Z,58.6
2022-08-08T08:43:15.000Z,58.4
2022-08-08T08:44:31.000Z,57.6
2022-08-08T08:45:48.000Z,57.1
2022-08-08T08:47:04.000Z,57
2022-08-08T08:48:20.000Z,57.4
2022-08-08T08:49:35.000Z,57.9
2022-08-08T08:50:51.000Z,57
2022-08-08T08:52:06.000Z,55.8
2022-08-08T08:53:21.000Z,56.8
2022-08-08T08:54:37.000Z,57.2
2022-08-08T08:55:54.000Z,57.1
2022-08-08T08:57:10.000Z,56.7
2022-08-08T08:58:26.000Z,56.6
2022-08-08T08:59:42.000Z,57.2
2022-08-08T09:00:58.000Z,57.4
2022-08-08T09:02:15.000Z,57
2022-08-08T09:03:31.000Z,56.3
2022-08-08T09:04:47.000Z,56.3
2022-08-08T09:06:03.000Z,55.8
2022-08-08T09:07:20.000Z,56.2
2022-08-08T09:08:36.000Z,56.6
2022-08-08T09:09:52.000Z,56.8
2022-08-08T09:11:07.000Z,57.3
2022-08-08T09:12:24.000Z,56.3
2022-08-08T09:13:40.000Z,55.5
2022-08-08T09:14:56.000Z,55.9
2022-08-08T09:16:12.000Z,56
2022-08-08T09:17:29.000Z,55.9
2022-08-08T09:18:44.000Z,55.5
2022-08-08T09:19:59.000Z,55.5
2022-08-08T09:21:15.000Z,54.6
2022-08-08T09:22:32.000Z,55
2022-08-08T09:23:47.000Z,54.8
2022-08-08T09:25:02.000Z,55
2022-08-08T09:26:18.000Z,54.5
2022-08-08T09:27:34.000Z,54.6
2022-08-08T09:28:51.000Z,54.7
2022-08-08T09:30:07.000Z,55
2022-08-08T09:31:23.000Z,55.2
2022-08-08T09:32:39.000Z,54.6
2022-08-08T09:33:56.000Z,54.7
2022-08-08T09:35:12.000Z,54.5
2022-08-08T09:36:28.000Z,54.1
2022-08-08T09:37:44.000Z,54.5
2022-08-08T09:39:01.000Z,53.7
2022-08-08T09:40:17.000Z,53.9
2022-08-08T09:41:32.000Z,53.3
2022-08-08T09:42:48.000Z,53.8
2022-08-08T09:44:05.000Z,53.8
2022-08-08T09:45:21.000Z,53.9
2022-08-08T09:46:37.000Z,54.2
2022-08-08T09:47:53.000Z,54.5
2022-08-08T09:49:09.000Z,54.1
2022-08-08T09:50:26.000Z,54.8
2022-08-08T09:51:41.000Z,54.1
2022-08-08T09:52:56.000Z,54.3
2022-08-08T09:54:12.000Z,53.6
2022-08-08T09:55:28.000Z,53.9
2022-08-08T09:56:43.000Z,53.3
2022-08-08T09:57:59.000Z,53.4
2022-08-08T09:59:15.000Z,53
2022-08-08T10:00:32.000Z,52.8
2022-08-08T10:01:48.000Z,52.5
2022-08-08T10:03:04.000Z,52.5
2022-08-08T10:04:20.000Z,52.6
2022-08-08T10:05:37.000Z,52.1
2022-08-08T10:06:53.000Z,51.8
2022-08-08T10:08:09.000Z,51.2
2022-08-08T10:09:25.000Z,52.4
2022-08-08T10:10:42.000Z,52.3
2022-08-08T10:11:58.000Z,52.3
2022-08-08T10:13:13.000Z,52.6
2022-08-08T10:14:29.000Z,52.6
2022-08-08T10:15:46.000Z,53.2
2022-08-08T10:17:02.000Z,53
2022-08-08T10:18:18.000Z,52
2022-08-08T10:19:34.000Z,52.4
2022-08-08T10:20:50.000Z,52.6
2022-08-08T10:22:06.000Z,52
2022-08-08T10:23:21.000Z,51.2
2022-08-08T10:24:36.000Z,50.8
2022-08-08T10:25:51.000Z,51
2022-08-08T10:27:08.000Z,51.4
2022-08-08T10:28:24.000Z,50.9
2022-08-08T10:29:40.000Z,50.4
2022-08-08T10:30:56.000Z,50.9
2022-08-08T10:32:13.000Z,52.5
2022-08-08T10:33:29.000Z,49.1
2022-08-08T10:34:45.000Z,48.5
2022-08-08T10:36:01.000Z,48.3
2022-08-08T10:37:18.000Z,49.1
2022-08-08T10:38:34.000Z,49.1
2022-08-08T10:39:50.000Z,49.3
2022-08-08T10:41:06.000Z,49.9
2022-08-08T10:42:22.000Z,50.1
2022-08-08T10:43:38.000Z,49.6
2022-08-08T10:44:54.000Z,50.2
2022-08-08T10:46:10.000Z,50.3
2022-08-08T10:47:26.000Z,50.5
2022-08-08T10:48:43.000Z,50.5
2022-08-08T10:49:59.000Z,49.7
2022-08-08T10:51:15.000Z,49.5
2022-08-08T10:52:31.000Z,50
2022-08-08T10:53:48.000Z,50.9
2022-08-08T10:55:04.000Z,51
2022-08-08T10:56:20.000Z,50.3
2022-08-08T10:57:36.000Z,50
2022-08-08T10:58:52.000Z,49.9
2022-08-08T11:00:08.000Z,49.7
2022-08-08T11:01:24.000Z,49.5
2022-08-08T11:02:40.000Z,49.7
2022-08-08T11:03:56.000Z,50.1
2022-08-08T11:05:13.000Z,50.1
2022-08-08T11:06:29.000Z,50.1
2022-08-08T11:07:45.000Z,49.6
2022-08-08T11:09:01.000Z,48.5
2022-08-08T11:10:18.000Z,47.8
2022-08-08T11:11:34.000Z,47.9
2022-08-08T11:12:50.000Z,48.2
2022-08-08T11:14:06.000Z,48.6
2022-08-08T11:15:22.000Z,48.3
2022-08-08T11:16:38.000Z,48.2
2022-08-08T11:17:54.000Z,47.5
2022-08-08T11:19:10.000Z,49.3
2022-08-08T11:20:26.000Z,49.5
2022-08-08T11:21:41.000Z,48.9
2022-08-08T11:22:56.000Z,48.4
2022-08-08T11:24:11.000Z,47.8
2022-08-08T11:25:27.000Z,47.7
2022-08-08T11:26:43.000Z,47.6
2022-08-08T11:27:59.000Z,47.7
2022-08-08T11:29:15.000Z,47.6
2022-08-08T11:30:32.000Z,48.5
2022-08-08T11:31:48.000Z,48.8
2022-08-08T11:33:04.000Z,49.5
2022-08-08T11:34:20.000Z,49.1
2022-08-08T11:35:36.000Z,50.1
2022-08-08T11:36:53.000Z,50.1
2022-08-08T11:38:09.000Z,49.8
2022-08-08T11:39:25.000Z,50
2022-08-08T11:40:41.000Z,50.1
2022-08-08T11:41:57.000Z,49.9
2022-08-08T11:43:13.000Z,50.4
2022-08-08T11:44:29.000Z,50.6
2022-08-08T11:45:45.000Z,50.3
2022-08-08T11:47:02.000Z,49.7
2022-08-08T11:48:18.000Z,49.2
2022-08-08T11:49:34.000Z,48.8
2022-08-08T11:50:50.000Z,48.9
2022-08-08T11:52:07.000Z,49.3
2022-08-08T11:53:23.000Z,49
2022-08-08T11:54:39.000Z,46.2
2022-08-08T11:55:54.000Z,46.9
2022-08-08T11:57:10.000Z,46.6
2022-08-08T11:58:26.000Z,46.2
2022-08-08T11:59:41.000Z,47.8
2022-08-08T12:00:56.000Z,47.2
2022-08-08T12:02:12.000Z,46.8
2022-08-08T12:03:29.000Z,47.1
2022-08-08T12:04:45.000Z,45.8
2022-08-08T12:06:01.000Z,45.7
2022-08-08T12:07:17.000Z,45.8
2022-08-08T12:08:34.000Z,46.4
2022-08-08T12:09:50.000Z,46.3
2022-08-08T12:11:06.000Z,46.4
2022-08-08T12:12:22.000Z,46.4
2022-08-08T12:13:39.000Z,45.8
2022-08-08T12:14:55.000Z,46.6
2022-08-08T12:16:11.000Z,46.6
2022-08-08T12:17:26.000Z,46.3
2022-08-08T12:18:43.000Z,46.4
2022-08-08T12:19:59.000Z,46.4
2022-08-08T12:21:15.000Z,46
2022-08-08T12:22:31.000Z,46
2022-08-08T12:23:47.000Z,45.9
2022-08-08T12:25:04.000Z,45.4
2022-08-08T12:26:19.000Z,44.1
2022-08-08T12:27:34.000Z,44.1
2022-08-08T12:28:50.000Z,43.9
2022-08-08T12:30:06.000Z,43.3
2022-08-08T12:31:21.000Z,44.5
2022-08-08T12:32:37.000Z,44.6
2022-08-08T12:33:53.000Z,44.2
2022-08-08T12:35:10.000Z,44.9
2022-08-08T12:36:26.000Z,45.8
2022-08-08T12:37:42.000Z,45
2022-08-08T12:38:58.000Z,45.2
2022-08-08T12:40:15.000Z,44.8
2022-08-08T12:41:31.000Z,44.6
2022-08-08T12:42:47.000Z,44.7
2022-08-08T12:44:03.000Z,44.6
2022-08-08T12:45:20.000Z,44.5
2022-08-08T12:46:36.000Z,43.9
2022-08-08T12:47:51.000Z,43.6
2022-08-08T12:49:07.000Z,43.4
2022-08-08T12:50:23.000Z,44.1
2022-08-08T12:51:40.000Z,44.9
2022-08-08T12:52:56.000Z,45.2
2022-08-08T12:54:12.000Z,44.5
2022-08-08T12:55:28.000Z,44.5
2022-08-08T12:56:45.000Z,43.9
2022-08-08T12:58:00.000Z,43.9
2022-08-08T12:59:15.000Z,43.5
2022-08-08T13:00:30.000Z,43.2
2022-08-08T13:01:46.000Z,42.9
2022-08-08T13:03:02.000Z,43
2022-08-08T13:04:18.000Z,43.1
2022-08-08T13:05:34.000Z,44
2022-08-08T13:06:51.000Z,44.4
2022-08-08T13:08:07.000Z,44.2
2022-08-08T13:09:23.000Z,44.3
2022-08-08T13:10:39.000Z,44.4
2022-08-08T13:11:56.000Z,43.3
2022-08-08T13:13:12.000Z,43.2
2022-08-08T13:14:28.000Z,42.1
2022-08-08T13:15:44.000Z,42.7
2022-08-08T13:17:00.000Z,43
2022-08-08T13:18:16.000Z,42.9
2022-08-08T13:19:32.000Z,41.9
2022-08-08T13:20:48.000Z,41.9
2022-08-08T13:22:04.000Z,41.6
2022-08-08T13:23:21.000Z,41.4
2022-08-08T13:24:37.000Z,41.2
2022-08-08T13:25:53.000Z,40.9
2022-08-08T13:27:09.000Z,40.2
2022-08-08T13:28:26.000Z,38.8
2022-08-08T13:29:42.000Z,38.4
2022-08-08T13:30:58.000Z,37.9
2022-08-08T13:32:14.000Z,38.6
2022-08-08T13:33:31.000Z,39
2022-08-08T13:34:46.000Z,39
2022-08-08T13:36:02.000Z,38.7
2022-08-08T13:37:18.000Z,37.6
2022-08-08T13:38:35.000Z,37.5
2022-08-08T13:39:51.000Z,36.8
2022-08-08T13:41:07.000Z,37.4
2022-08-08T13:42:23.000Z,36.6
2022-08-08T13:43:39.000Z,37
2022-08-08T13:44:56.000Z,38.8
2022-08-08T13:46:12.000Z,40.3
2022-08-08T13:47:28.000Z,41.9
2022-08-08T13:48:44.000Z,43.8
2022-08-08T13:50:01.000Z,43.6
2022-08-08T13:51:17.000Z,43.7
2022-08-08T13:52:32.000Z,44.3
2022-08-08T13:53:48.000Z,44.1
2022-08-08T13:55:05.000Z,43.8
2022-08-08T13:56:21.000Z,42.6
2022-08-08T13:57:37.000Z,40.3
2022-08-08T13:58:53.000Z,39.5
2022-08-08T14:00:09.000Z,39
2022-08-08T14:01:26.000Z,38.3
2022-08-08T14:02:42.000Z,38.3
2022-08-08T14:03:58.000Z,38.6
2022-08-08T14:05:14.000Z,38.2
2022-08-08T14:06:31.000Z,37.3
2022-08-08T14:07:47.000Z,37
2022-08-08T14:09:02.000Z,36.5
2022-08-08T14:10:18.000Z,36.6
2022-08-08T14:11:35.000Z,36.9
2022-08-08T14:12:51.000Z,36
2022-08-08T14:14:07.000Z,35.6
2022-08-08T14:15:23.000Z,35.4
2022-08-08T14:16:40.000Z,35.3
2022-08-08T14:17:56.000Z,35.1
2022-08-08T14:19:12.000Z,36
2022-08-08T14:20:28.000Z,36.1
2022-08-08T14:21:44.000Z,36
2022-08-08T14:23:01.000Z,36.9
2022-08-08T14:24:17.000Z,36.9
2022-08-08T14:25:32.000Z,38.4
2022-08-08T14:26:48.000Z,38.5
2022-08-08T14:28:04.000Z,38.4
2022-08-08T14:29:19.000Z,37.7
2022-08-08T14:30:34.000Z,37.8
2022-08-08T14:31:49.000Z,37.4
2022-08-08T14:33:06.000Z,38.1
2022-08-08T14:34:22.000Z,38.1
2022-08-08T14:35:38.000Z,37.4
2022-08-08T14:36:54.000Z,38.1
2022-08-08T14:38:11.000Z,37.9
2022-08-08T14:39:27.000Z,38
2022-08-08T14:40:43.000Z,38.6
2022-08-08T14:41:59.000Z,39.2
2022-08-08T14:43:16.000Z,38.6
2022-08-08T14:44:32.000Z,38.8
2022-08-08T14:45:48.000Z,39.8
2022-08-08T14:47:04.000Z,39.1
2022-08-08T14:48:20.000Z,38.8
2022-08-08T14:49:36.000Z,38.2
2022-08-08T14:50:52.000Z,38.5
2022-08-08T14:52:08.000Z,38.5
2022-08-08T14:53:24.000Z,38.5
2022-08-08T14:54:41.000Z,38.5
2022-08-08T14:55:57.459Z,39.3
2022-08-08T14:57:12.000Z,39.2
2022-08-08T14:58:27.000Z,38.4
2022-08-08T14:59:43.000Z,39.1
2022-08-08T15:00:58.000Z,39.1
2022-08-08T15:02:14.000Z,39.2
2022-08-08T15:03:30.000Z,38.3
2022-08-08T15:04:47.000Z,38.9
2022-08-08T15:06:03.000Z,38.1
2022-08-08T15:07:19.000Z,38.3
2022-08-08T15:08:35.000Z,38.2
2022-08-08T15:09:52.000Z,37.4
2022-08-08T15:11:08.000Z,37.9
2022-08-08T15:12:24.000Z,38.8
2022-08-08T15:13:40.000Z,38.9
2022-08-08T15:14:57.000Z,38.5
2022-08-08T15:16:13.000Z,37.9
2022-08-08T15:17:28.000Z,37.9
2022-08-08T15:18:44.000Z,37.2
2022-08-08T15:20:01.000Z,37.8
2022-08-08T15:21:17.000Z,40
2022-08-08T15:22:33.000Z,41.5
2022-08-08T15:23:49.000Z,40.6
2022-08-08T15:25:05.000Z,39.3
2022-08-08T15:26:21.000Z,38.4
2022-08-08T15:27:36.000Z,37.8
2022-08-08T15:28:52.000Z,37.3
2022-08-08T15:30:08.000Z,37.4
2022-08-08T15:31:24.000Z,37.3
2022-08-08T15:32:39.000Z,37.4
2022-08-08T15:33:55.000Z,38
2022-08-08T15:35:10.000Z,37.8
2022-08-08T15:36:27.000Z,36.9
2022-08-08T15:37:43.000Z,37.1
2022-08-08T15:38:59.000Z,36.2
2022-08-08T15:40:15.000Z,36
2022-08-08T15:41:32.000Z,35.8
2022-08-08T15:42:48.000Z,36.2
2022-08-08T15:44:04.000Z,36.7
2022-08-08T15:45:20.000Z,37.1
2022-08-08T15:46:37.000Z,36.1
2022-08-08T15:47:53.000Z,36.1
2022-08-08T15:49:09.000Z,35.7
2022-08-08T15:50:25.000Z,36
2022-08-08T15:51:41.000Z,35.7
2022-08-08T15:52:57.000Z,35.8
2022-08-08T15:54:13.000Z,35.9
2022-08-08T15:55:29.000Z,35.5
2022-08-08T15:56:45.000Z,35.2
2022-08-08T15:58:01.000Z,35.3
2022-08-08T15:59:16.000Z,35.1
2022-08-08T16:00:31.000Z,35.2
2022-08-08T16:01:46.000Z,34.2
2022-08-08T16:03:03.000Z,34.5
2022-08-08T16:04:19.000Z,34.1
2022-08-08T16:05:35.000Z,34.6
2022-08-08T16:06:51.000Z,34.6
2022-08-08T16:08:08.000Z,35.4
2022-08-08T16:09:24.000Z,35.8
2022-08-08T16:10:40.000Z,35.9
2022-08-08T16:11:56.000Z,35.9
2022-08-08T16:13:13.000Z,36.1
2022-08-08T16:14:29.000Z,35.6
2022-08-08T16:15:45.000Z,37
2022-08-08T16:17:01.000Z,37
2022-08-08T16:18:17.000Z,36.1
2022-08-08T16:19:33.000Z,36
2022-08-08T16:20:49.000Z,36.3
2022-08-08T16:22:05.000Z,36.1
2022-08-08T16:23:22.000Z,35.3
2022-08-08T16:24:38.000Z,37.7
2022-08-08T16:25:54.000Z,39.3
2022-08-08T16:27:10.000Z,40.1
2022-08-08T16:28:26.000Z,38.9
2022-08-08T16:29:43.000Z,37.9
2022-08-08T16:30:59.000Z,37
2022-08-08T16:32:15.000Z,35.9
2022-08-08T16:33:31.000Z,35.8
2022-08-08T16:34:47.000Z,34.9
2022-08-08T16:36:03.000Z,34.1
2022-08-08T16:37:19.000Z,34.5
2022-08-08T16:38:35.000Z,34.4
2022-08-08T16:39:52.000Z,35.2
2022-08-08T16:41:08.000Z,35.4
2022-08-08T16:42:24.000Z,36.1
2022-08-08T16:43:40.000Z,36.4
2022-08-08T16:44:57.000Z,36.8
2022-08-08T16:46:13.000Z,36
2022-08-08T16:47:29.000Z,34.9
2022-08-08T16:48:45.000Z,34.4
2022-08-08T16:50:01.000Z,33.5
2022-08-08T16:51:17.000Z,33.4
2022-08-08T16:52:33.000Z,33.7
2022-08-08T16:53:49.000Z,34.5
2022-08-08T16:55:05.000Z,35.4
2022-08-08T16:56:22.000Z,36.3
2022-08-08T16:57:38.000Z,37.2
2022-08-08T16:58:54.000Z,36.7
2022-08-08T17:00:10.000Z,36.1
2022-08-08T17:01:27.000Z,34.6